createdAt,value
2019-04-20T00:01:07.450Z,10.40
2019-04-20T00:03:41.747Z,10.50
2019-04-20T00:06:11.098Z,10.40
2019-04-20T00:08:42.792Z,10.40
2019-04-20T00:11:18.481Z,10.30
2019-04-20T00:13:52.536Z,10.20
2019-04-20T00:16:16.858Z,10.20
2019-04-20T00:18:52.975Z,10.10
2019-04-20T00:21:42.727Z,10.10
2019-04-20T00:24:31.059Z,10.10
2019-04-20T00:27:19.282Z,10.10
2019-04-20T00:29:49.881Z,10.10
2019-04-20T00:32:13.430Z,10.00
2019-04-20T00:34:37.198Z,9.90
2019-04-20T00:37:05.194Z,9.80
2019-04-20T00:39:36.130Z,9.70
2019-04-20T00:42:10.725Z,9.70
2019-04-20T00:44:39.578Z,9.70
2019-04-20T00:47:21.898Z,9.70
2019-04-20T00:49:55.039Z,9.60
2019-04-20T00:52:27.469Z,9.50
2019-04-20T00:54:43.682Z,9.60
2019-04-20T00:57:25.909Z,9.60
2019-04-20T01:00:09.385Z,9.60
2019-04-20T01:02:29.921Z,9.50
2019-04-20T01:05:05.091Z,9.50
2019-04-20T01:07:38.606Z,9.50
2019-04-20T01:10:05.249Z,9.60
2019-04-20T01:12:38.434Z,9.50
2019-04-20T01:15:11.876Z,9.50
2019-04-20T01:17:41.968Z,9.30
2019-04-20T01:20:12.852Z,9.20
2019-04-20T01:22:48.409Z,9.10
2019-04-20T01:25:22.119Z,9.10
2019-04-20T01:28:04.589Z,9.10
2019-04-20T01:30:25.229Z,9.10
2019-04-20T01:33:08.904Z,9.10
2019-04-20T01:35:39.184Z,9.10
2019-04-20T01:38:12.635Z,9.10
2019-04-20T01:40:25.366Z,9.20
2019-04-20T01:42:55.460Z,9.10
2019-04-20T01:45:29.375Z,9.10
2019-04-20T01:47:59.549Z,9.00
2019-04-20T01:50:33.063Z,8.90
2019-04-20T01:53:11.551Z,8.80
2019-04-20T01:55:45.489Z,8.70
2019-04-20T01:58:36.379Z,8.70
2019-04-20T02:00:48.119Z,8.80
2019-04-20T02:03:43.358Z,8.80
2019-04-20T02:06:15.116Z,8.80
2019-04-20T02:08:42.627Z,8.80
2019-04-20T02:11:18.666Z,8.80
2019-04-20T02:13:51.017Z,8.70
2019-04-20T02:16:27.302Z,8.60
2019-04-20T02:19:05.311Z,8.60
2019-04-20T02:21:34.292Z,8.50
2019-04-20T02:23:57.271Z,8.40
2019-04-20T02:26:22.340Z,8.50
2019-04-20T02:29:18.585Z,8.50
2019-04-20T02:32:08.513Z,8.50
2019-04-20T02:37:13.935Z,8.30
2019-04-20T02:39:46.312Z,8.30
2019-04-20T02:44:53.028Z,8.20
2019-04-20T02:47:28.025Z,8.20
2019-04-20T02:49:50.833Z,8.10
2019-04-20T02:52:24.980Z,8.10
2019-04-20T02:54:58.496Z,8.10
2019-04-20T03:02:14.735Z,8.10
2019-04-20T03:04:37.035Z,8.10
2019-04-20T03:07:16.464Z,8.00
2019-04-20T03:09:51.482Z,8.00
2019-04-20T03:12:28.927Z,8.10
2019-04-20T03:14:53.978Z,8.10
2019-04-20T03:17:32.807Z,8.00
2019-04-20T03:19:55.052Z,7.90
2019-04-20T03:22:48.361Z,7.90
2019-04-20T03:25:06.915Z,7.80
2019-04-20T03:27:33.114Z,7.80
2019-04-20T03:31:00.973Z,7.70
2019-04-20T03:35:22.402Z,7.70
2019-04-20T03:37:52.480Z,7.70
2019-04-20T03:40:22.784Z,7.70
2019-04-20T03:42:37.766Z,7.70
2019-04-20T03:45:14.040Z,7.70
2019-04-20T03:47:54.355Z,7.60
2019-04-20T03:50:35.589Z,7.60
2019-04-20T03:53:14.188Z,7.60
2019-04-20T03:55:40.834Z,7.60
2019-04-20T03:58:24.248Z,7.50
2019-04-20T04:00:57.276Z,7.40
2019-04-20T04:03:44.105Z,7.30
2019-04-20T04:06:10.108Z,7.30
2019-04-20T04:08:35.807Z,7.30
2019-04-20T04:11:15.968Z,7.30
2019-04-20T04:13:31.352Z,7.30
2019-04-20T04:16:06.905Z,7.30
2019-04-20T04:18:38.640Z,7.30
2019-04-20T04:21:10.079Z,7.20
2019-04-20T04:23:56.242Z,7.20
2019-04-20T04:26:26.093Z,7.30
2019-04-20T04:29:07.070Z,7.20
2019-04-20T04:31:33.798Z,7.20
2019-04-20T04:34:04.902Z,7.20
2019-04-20T04:36:30.661Z,7.20
2019-04-20T04:39:08.871Z,7.10
2019-04-20T04:41:39.860Z,7.20
2019-04-20T04:44:09.637Z,7.20
2019-04-20T04:46:24.778Z,7.20
2019-04-20T04:49:06.864Z,7.10
2019-04-20T04:51:38.500Z,7.10
2019-04-20T04:54:10.095Z,7.10
2019-04-20T04:56:30.806Z,7.10
2019-04-20T04:59:02.367Z,7.10
2019-04-20T05:01:34.428Z,7.10
2019-04-20T05:06:48.066Z,7.00
2019-04-20T05:09:10.432Z,7.00
2019-04-20T05:11:38.678Z,7.00
2019-04-20T05:14:14.993Z,6.90
2019-04-20T05:16:54.634Z,6.90
2019-04-20T05:19:29.516Z,7.00
2019-04-20T05:22:10.868Z,7.00
2019-04-20T05:24:42.691Z,7.10
2019-04-20T05:27:37.578Z,7.10
2019-04-20T05:29:47.154Z,7.20
2019-04-20T05:32:24.870Z,7.30
2019-04-20T05:35:12.294Z,7.40
2019-04-20T05:37:56.785Z,7.50
2019-04-20T05:40:20.581Z,7.60
2019-04-20T05:42:52.453Z,7.60
2019-04-20T05:45:26.082Z,7.60
2019-04-20T05:47:53.668Z,7.70
2019-04-20T05:50:31.665Z,7.70
2019-04-20T05:53:07.446Z,7.70
2019-04-20T05:55:41.619Z,7.80
2019-04-20T05:58:13.951Z,7.90
2019-04-20T06:00:47.667Z,8.00
2019-04-20T06:03:13.010Z,8.10
2019-04-20T06:05:52.287Z,8.20
2019-04-20T06:08:29.048Z,8.30
2019-04-20T06:10:50.553Z,8.50
2019-04-20T06:13:33.673Z,8.50
2019-04-20T06:16:07.623Z,8.60
2019-04-20T06:19:10.237Z,8.80
2019-04-20T06:21:52.509Z,9.10
2019-04-20T06:24:15.652Z,9.30
2019-04-20T06:26:51.524Z,9.50
2019-04-20T06:29:05.107Z,9.60
2019-04-20T06:31:40.943Z,9.60
2019-04-20T06:34:30.134Z,9.60
2019-04-20T06:37:05.821Z,9.70
2019-04-20T06:39:50.629Z,9.70
2019-04-20T06:44:41.290Z,9.80
2019-04-20T06:47:27.363Z,9.90
2019-04-20T06:50:00.430Z,10.10
2019-04-20T06:52:28.564Z,10.30
2019-04-20T06:55:11.120Z,10.50
2019-04-20T06:57:47.625Z,10.80
2019-04-20T07:05:22.294Z,11.20
2019-04-20T07:07:54.740Z,11.20
2019-04-20T07:10:44.567Z,11.20
2019-04-20T07:12:55.213Z,11.20
2019-04-20T07:15:25.047Z,11.20
2019-04-20T07:18:02.774Z,11.30
2019-04-20T07:20:54.086Z,11.40
2019-04-20T07:23:23.800Z,11.40
2019-04-20T07:25:47.614Z,11.50
2019-04-20T07:28:19.713Z,11.60
2019-04-20T07:30:50.792Z,11.80
2019-04-20T07:33:24.616Z,11.90
2019-04-20T07:35:52.343Z,12.10
2019-04-20T07:38:31.007Z,12.30
2019-04-20T07:40:57.372Z,12.30
2019-04-20T07:43:25.582Z,12.50
2019-04-20T07:46:03.052Z,12.70
2019-04-20T07:48:30.525Z,12.90
2019-04-20T07:50:55.600Z,13.10
2019-04-20T07:53:29.417Z,13.30
2019-04-20T07:56:08.489Z,13.50
2019-04-20T07:58:29.537Z,13.60
2019-04-20T08:01:17.866Z,13.70
2019-04-20T08:03:44.252Z,13.90
2019-04-20T08:06:21.283Z,14.30
2019-04-20T08:09:04.062Z,14.70
2019-04-20T08:11:47.312Z,15.10
2019-04-20T08:14:13.334Z,15.40
2019-04-20T08:16:51.754Z,15.60
2019-04-20T08:19:10.100Z,15.70
2019-04-20T08:21:47.480Z,16.00
2019-04-20T08:24:13.189Z,16.30
2019-04-20T08:26:35.982Z,16.60
2019-04-20T08:29:29.089Z,16.90
2019-04-20T08:32:26.518Z,17.10
2019-04-20T08:34:59.523Z,17.30
2019-04-20T08:37:29.283Z,17.80
2019-04-20T08:40:10.285Z,18.20
2019-04-20T08:42:38.006Z,18.40
2019-04-20T08:45:07.214Z,18.90
2019-04-20T08:47:48.671Z,19.30
2019-04-20T08:50:16.797Z,19.30
2019-04-20T08:53:03.585Z,19.50
2019-04-20T08:55:16.476Z,19.50
2019-04-20T08:57:29.302Z,19.40
2019-04-20T09:00:01.491Z,19.30
2019-04-20T09:02:32.679Z,19.00
2019-04-20T09:05:11.703Z,18.80
2019-04-20T09:07:47.278Z,18.70
2019-04-20T09:10:34.391Z,18.70
2019-04-20T09:12:57.293Z,19.00
2019-04-20T09:15:16.842Z,19.40
2019-04-20T09:18:13.815Z,19.70
2019-04-20T09:20:47.542Z,19.80
2019-04-20T09:23:27.128Z,20.20
2019-04-20T09:28:30.903Z,20.50
2019-04-20T09:31:10.812Z,20.70
2019-04-20T09:33:46.045Z,20.80
2019-04-20T09:36:20.355Z,20.80
2019-04-20T09:39:04.821Z,20.60
2019-04-20T09:41:47.145Z,20.30
2019-04-20T09:44:00.448Z,20.20
2019-04-20T09:46:39.326Z,20.30
2019-04-20T09:49:18.062Z,20.30
2019-04-20T09:51:54.091Z,20.50
2019-04-20T09:54:26.731Z,20.70
2019-04-20T09:57:07.615Z,21.10
2019-04-20T09:59:30.623Z,21.40
2019-04-20T10:01:47.593Z,21.70
2019-04-20T10:04:15.663Z,21.70
2019-04-20T10:06:45.620Z,21.60
2019-04-20T10:09:22.394Z,21.70
2019-04-20T10:11:49.355Z,22.00
2019-04-20T10:14:20.129Z,22.30
2019-04-20T10:16:51.844Z,22.60
2019-04-20T10:19:28.913Z,22.80
2019-04-20T10:21:54.886Z,23.00
2019-04-20T10:24:26.487Z,23.20
2019-04-20T10:26:58.646Z,23.60
2019-04-20T10:29:28.578Z,24.00
2019-04-20T10:32:02.637Z,24.00
2019-04-20T10:34:30.662Z,24.10
2019-04-20T10:37:03.784Z,24.10
2019-04-20T10:39:36.266Z,24.00
2019-04-20T10:42:07.987Z,24.20
2019-04-20T10:44:38.922Z,24.60
2019-04-20T10:47:09.205Z,25.50
2019-04-20T10:49:39.258Z,26.50
2019-04-20T10:52:09.704Z,27.20
2019-04-20T10:54:40.620Z,28.20
2019-04-20T10:57:11.328Z,29.00
2019-04-20T10:59:41.546Z,30.10
2019-04-20T11:02:12.107Z,30.50
2019-04-20T11:04:42.716Z,30.90
2019-04-20T11:07:14.563Z,31.20
2019-04-20T11:09:44.834Z,31.50
2019-04-20T11:12:16.528Z,31.80
2019-04-20T11:14:48.012Z,31.30
2019-04-20T11:17:18.254Z,31.00
2019-04-20T11:19:49.490Z,30.80
2019-04-20T11:22:20.088Z,31.20
2019-04-20T11:24:50.407Z,31.50
2019-04-20T11:27:20.495Z,31.70
2019-04-20T11:29:51.849Z,32.10
2019-04-20T11:32:24.117Z,32.60
2019-04-20T11:34:56.384Z,32.20
2019-04-20T11:37:26.835Z,32.50
2019-04-20T11:39:57.071Z,32.60
2019-04-20T11:42:28.231Z,32.40
2019-04-20T11:44:58.407Z,32.90
2019-04-20T11:47:29.645Z,33.30
2019-04-20T11:49:59.623Z,33.40
2019-04-20T11:52:33.233Z,33.40
2019-04-20T11:55:02.296Z,33.10
2019-04-20T11:57:33.438Z,33.10
2019-04-20T12:00:05.594Z,33.10
2019-04-20T12:02:44.368Z,33.30
2019-04-20T12:05:24.649Z,32.90
2019-04-20T12:07:58.667Z,33.20
2019-04-20T12:10:30.065Z,33.60
2019-04-20T12:13:01.762Z,33.80
2019-04-20T12:15:35.033Z,33.60
2019-04-20T12:18:05.403Z,33.40
2019-04-20T12:20:36.569Z,33.80
2019-04-20T12:23:08.428Z,33.70
2019-04-20T12:25:40.930Z,34.20
2019-04-20T12:28:11.595Z,34.30
2019-04-20T12:30:42.009Z,34.60
2019-04-20T12:33:11.829Z,34.70
2019-04-20T12:35:42.679Z,34.10
2019-04-20T12:38:12.934Z,33.40
2019-04-20T12:40:44.046Z,33.50
2019-04-20T12:43:15.133Z,33.60
2019-04-20T12:45:45.857Z,33.70
2019-04-20T12:48:17.523Z,34.30
2019-04-20T12:50:47.906Z,34.20
2019-04-20T12:53:18.185Z,34.70
2019-04-20T12:55:48.437Z,34.50
2019-04-20T12:58:18.705Z,34.40
2019-04-20T13:00:50.533Z,34.40
2019-04-20T13:03:21.441Z,34.70
2019-04-20T13:05:52.160Z,34.40
2019-04-20T13:08:30.640Z,34.50
2019-04-20T13:10:58.376Z,32.60
2019-04-20T13:13:36.615Z,30.70
2019-04-20T13:16:12.324Z,29.40
2019-04-20T13:18:47.714Z,28.20
2019-04-20T13:21:19.010Z,27.40
2019-04-20T13:23:51.010Z,27.00
2019-04-20T13:26:22.662Z,26.90
2019-04-20T13:28:55.005Z,27.10
2019-04-20T13:31:26.111Z,26.80
2019-04-20T13:33:57.209Z,26.70
2019-04-20T13:36:28.475Z,26.60
2019-04-20T13:38:59.878Z,26.60
2019-04-20T13:41:31.605Z,26.60
2019-04-20T13:44:03.658Z,26.60
2019-04-20T13:46:34.552Z,26.60
2019-04-20T13:49:04.934Z,26.70
2019-04-20T13:51:34.995Z,26.50
2019-04-20T13:54:07.438Z,26.20
2019-04-20T13:56:37.621Z,26.00
2019-04-20T13:59:28.315Z,25.80
2019-04-20T14:02:08.859Z,25.70
2019-04-20T14:04:41.360Z,25.80
2019-04-20T14:07:14.122Z,25.80
2019-04-20T14:09:43.618Z,25.60
2019-04-20T14:12:23.276Z,25.40
2019-04-20T14:14:46.926Z,25.30
2019-04-20T14:17:19.090Z,25.20
2019-04-20T14:19:50.537Z,24.90
2019-04-20T14:22:21.164Z,24.80
2019-04-20T14:24:51.456Z,24.70
2019-04-20T14:27:21.490Z,24.70
2019-04-20T14:29:52.957Z,24.60
2019-04-20T14:32:22.953Z,24.60
2019-04-20T14:34:54.458Z,24.50
2019-04-20T14:37:24.707Z,24.30
2019-04-20T14:39:56.430Z,24.30
2019-04-20T14:42:37.361Z,24.30
2019-04-20T14:44:59.706Z,24.20
2019-04-20T14:47:31.856Z,24.20
2019-04-20T14:50:03.216Z,24.30
2019-04-20T14:52:33.772Z,24.10
2019-04-20T14:55:07.739Z,24.10
2019-04-20T14:57:37.677Z,24.00
2019-04-20T15:00:23.544Z,23.90
2019-04-20T15:02:56.255Z,23.80
2019-04-20T15:05:26.390Z,23.70
2019-04-20T15:07:58.566Z,23.80
2019-04-20T15:10:28.983Z,23.80
2019-04-20T15:13:02.408Z,23.80
2019-04-20T15:15:30.454Z,23.70
2019-04-20T15:18:05.912Z,23.60
2019-04-20T15:20:37.499Z,23.40
2019-04-20T15:23:09.600Z,23.30
2019-04-20T15:25:40.261Z,23.30
2019-04-20T15:28:10.469Z,23.40
2019-04-20T15:30:40.523Z,23.40
2019-04-20T15:33:10.877Z,23.30
2019-04-20T15:35:41.932Z,23.30
2019-04-20T15:38:13.103Z,23.20
2019-04-20T15:40:43.205Z,23.20
2019-04-20T15:43:17.405Z,23.10
2019-04-20T15:45:45.425Z,23.00
2019-04-20T15:48:16.341Z,22.90
2019-04-20T15:50:47.719Z,22.90
2019-04-20T15:53:17.715Z,22.90
2019-04-20T15:55:49.199Z,22.90
2019-04-20T15:58:20.670Z,22.80
2019-04-20T16:00:52.611Z,22.80
2019-04-20T16:03:30.315Z,22.80
2019-04-20T16:06:05.437Z,22.80
2019-04-20T16:08:39.657Z,22.70
2019-04-20T16:11:11.071Z,22.60
2019-04-20T16:13:45.779Z,22.50
2019-04-20T16:16:13.982Z,22.40
2019-04-20T16:18:45.283Z,22.40
2019-04-20T16:21:20.837Z,22.40
2019-04-20T16:23:48.670Z,22.30
2019-04-20T16:26:21.768Z,22.30
2019-04-20T16:28:53.504Z,22.30
2019-04-20T16:31:24.531Z,22.30
2019-04-20T16:33:57.443Z,22.30
2019-04-20T16:36:28.325Z,22.30
2019-04-20T16:38:59.515Z,22.30
2019-04-20T16:41:30.632Z,22.30
2019-04-20T16:44:00.906Z,22.20
2019-04-20T16:46:32.034Z,22.20
2019-04-20T16:49:03.031Z,22.10
2019-04-20T16:51:34.611Z,22.10
2019-04-20T16:54:05.786Z,22.00
2019-04-20T16:56:37.032Z,21.90
2019-04-20T16:59:11.593Z,21.80
2019-04-20T17:01:40.239Z,21.80
2019-04-20T17:04:15.480Z,21.70
2019-04-20T17:07:02.426Z,21.70
2019-04-20T17:09:33.657Z,21.70
2019-04-20T17:12:03.867Z,21.70
2019-04-20T17:14:33.878Z,21.70
2019-04-20T17:17:03.940Z,21.70
2019-04-20T17:19:33.928Z,21.60
2019-04-20T17:22:05.507Z,21.60
2019-04-20T17:24:35.789Z,21.50
2019-04-20T17:27:17.099Z,21.50
2019-04-20T17:30:07.878Z,21.50
2019-04-20T17:32:39.232Z,21.50
2019-04-20T17:35:24.873Z,21.40
2019-04-20T17:37:43.771Z,21.40
2019-04-20T17:40:35.330Z,21.40
2019-04-20T17:42:56.671Z,21.30
2019-04-20T17:45:28.592Z,21.30
2019-04-20T17:48:04.470Z,21.30
2019-04-20T17:50:38.672Z,21.20
2019-04-20T17:53:05.164Z,21.20
2019-04-20T17:55:39.482Z,21.10
2019-04-20T17:58:11.041Z,21.10
2019-04-20T18:00:57.792Z,21.00
2019-04-20T18:04:04.564Z,20.90
2019-04-20T18:06:19.897Z,20.90
2019-04-20T18:08:50.580Z,20.80
2019-04-20T18:11:10.072Z,20.70
2019-04-20T18:13:36.092Z,20.60
2019-04-20T18:16:29.569Z,20.60
2019-04-20T18:19:00.289Z,20.50
2019-04-20T18:21:24.451Z,20.40
2019-04-20T18:23:54.487Z,20.30
2019-04-20T18:26:45.438Z,20.20
2019-04-20T18:29:15.133Z,20.20
2019-04-20T18:31:35.398Z,20.10
2019-04-20T18:34:13.174Z,20.00
2019-04-20T18:36:43.913Z,20.00
2019-04-20T18:39:13.688Z,19.90
2019-04-20T18:41:48.291Z,19.80
2019-04-20T18:44:14.819Z,19.80
2019-04-20T18:47:09.550Z,19.70
2019-04-20T18:49:33.593Z,19.60
2019-04-20T18:51:49.036Z,19.60
2019-04-20T18:54:24.301Z,19.60
2019-04-20T18:56:52.950Z,19.50
2019-04-20T18:59:23.423Z,19.40
2019-04-20T19:01:55.003Z,19.40
2019-04-20T19:04:25.920Z,19.30
2019-04-20T19:06:56.245Z,19.20
2019-04-20T19:09:30.442Z,19.10
2019-04-20T19:12:02.880Z,19.00
2019-04-20T19:14:51.705Z,18.90
2019-04-20T19:17:41.942Z,18.90
2019-04-20T19:20:02.339Z,18.80
2019-04-20T19:22:35.515Z,18.80
2019-04-20T19:25:10.004Z,18.80
2019-04-20T19:27:43.436Z,18.70
2019-04-20T19:30:21.186Z,18.60
2019-04-20T19:33:01.014Z,18.50
2019-04-20T19:35:25.724Z,18.40
2019-04-20T19:37:56.965Z,18.30
2019-04-20T19:40:33.803Z,18.30
2019-04-20T19:43:03.531Z,18.10
2019-04-20T19:46:06.615Z,18.00
2019-04-20T19:48:09.608Z,17.80
2019-04-20T19:50:53.150Z,17.70
2019-04-20T19:53:21.171Z,17.60
2019-04-20T19:55:46.045Z,17.50
2019-04-20T19:58:13.909Z,17.30
2019-04-20T20:00:53.456Z,17.30
2019-04-20T20:03:22.062Z,17.20
2019-04-20T20:05:54.776Z,17.10
2019-04-20T20:08:28.139Z,17.00
2019-04-20T20:10:59.237Z,16.90
2019-04-20T20:13:36.246Z,16.80
2019-04-20T20:16:06.017Z,16.80
2019-04-20T20:18:48.205Z,16.70
2019-04-20T20:21:17.603Z,16.60
2019-04-20T20:23:34.212Z,16.50
2019-04-20T20:26:07.247Z,16.50
2019-04-20T20:28:45.441Z,16.40
2019-04-20T20:31:22.352Z,16.30
2019-04-20T20:33:56.490Z,16.20
2019-04-20T20:36:15.733Z,16.20
2019-04-20T20:38:50.691Z,16.10
2019-04-20T20:41:26.205Z,16.10
2019-04-20T20:44:01.116Z,16.00
2019-04-20T20:46:30.656Z,15.90
2019-04-20T20:49:11.740Z,15.80
2019-04-20T20:51:48.554Z,15.70
2019-04-20T20:54:06.840Z,15.60
2019-04-20T20:56:30.899Z,15.60
2019-04-20T20:59:07.220Z,15.50
2019-04-20T21:01:41.412Z,15.50
2019-04-20T21:04:02.555Z,15.40
2019-04-20T21:06:33.198Z,15.30
2019-04-20T21:09:05.013Z,15.30
2019-04-20T21:11:36.369Z,15.30
2019-04-20T21:14:06.834Z,15.30
2019-04-20T21:16:46.600Z,15.30
2019-04-20T21:19:24.550Z,15.20
2019-04-20T21:21:49.961Z,15.20
2019-04-20T21:24:27.285Z,15.20
2019-04-20T21:27:01.620Z,15.10
2019-04-20T21:29:35.910Z,15.10
2019-04-20T21:32:08.154Z,15.00
2019-04-20T21:34:35.459Z,15.00
2019-04-20T21:37:10.708Z,15.00
2019-04-20T21:39:44.132Z,14.90
2019-04-20T21:42:14.382Z,14.90
2019-04-20T21:44:42.933Z,14.80
2019-04-20T21:47:15.656Z,14.80
2019-04-20T21:49:54.101Z,14.70
2019-04-20T21:52:23.346Z,14.70
2019-04-20T21:54:48.207Z,14.70
2019-04-20T21:57:18.280Z,14.60
2019-04-20T21:59:51.917Z,14.60
2019-04-20T22:02:25.289Z,14.50
2019-04-20T22:04:51.402Z,14.50
2019-04-20T22:07:22.805Z,14.40
2019-04-20T22:09:53.639Z,14.50
2019-04-20T22:12:28.396Z,14.40
2019-04-20T22:15:02.963Z,14.30
2019-04-20T22:17:32.158Z,14.20
2019-04-20T22:20:12.062Z,14.20
2019-04-20T22:22:46.873Z,14.10
2019-04-20T22:25:23.433Z,14.00
2019-04-20T22:27:35.178Z,13.90
2019-04-20T22:30:08.235Z,13.90
2019-04-20T22:32:44.212Z,13.90
2019-04-20T22:35:13.966Z,13.90
2019-04-20T22:37:43.462Z,13.80
2019-04-20T22:40:20.492Z,13.80
2019-04-20T22:42:48.639Z,13.70
2019-04-20T22:45:17.352Z,13.70
2019-04-20T22:47:48.150Z,13.60
2019-04-20T22:50:35.791Z,13.40
2019-04-20T22:52:59.306Z,13.30
2019-04-20T22:55:47.346Z,13.30
2019-04-20T22:58:01.285Z,13.30
2019-04-20T23:00:35.373Z,13.30
2019-04-20T23:02:56.730Z,13.30
2019-04-20T23:05:40.606Z,13.20
2019-04-20T23:08:10.976Z,13.20
2019-04-20T23:10:44.788Z,13.10
2019-04-20T23:13:13.736Z,13.00
2019-04-20T23:15:50.025Z,13.00
2019-04-20T23:18:16.044Z,12.90
2019-04-20T23:20:45.958Z,12.90
2019-04-20T23:23:20.673Z,12.90
2019-04-20T23:25:47.622Z,12.80
2019-04-20T23:28:19.698Z,12.80
2019-04-20T23:30:54.310Z,12.90
2019-04-20T23:33:22.057Z,12.90
2019-04-20T23:35:56.602Z,12.90
2019-04-20T23:38:24.777Z,12.90
2019-04-20T23:40:55.591Z,12.80
2019-04-20T23:43:30.468Z,12.70
2019-04-20T23:46:17.250Z,12.70
2019-04-20T23:48:46.512Z,12.70
2019-04-20T23:51:36.762Z,12.60
2019-04-20T23:53:55.310Z,12.50
2019-04-20T23:56:22.047Z,12.50
2019-04-20T23:58:53.462Z,12.40
